Time;durP1;ratioP1;P1;durP2;ratioP2;P2;SDS_P1;SDS_P2;PMS_P1;PMS_P2;Temp;Humidity;BMP_temperature;BMP_pressure;BME280_temperature;BME280_humidity;BME280_pressure;Samples;Min_cycle;Max_cycle;Signal;HPM_P1;HPM_P2
2020/12/10 00:01:05;;;;;;;;;;;3.40;90.10;;;;;;4874736;29;19963;-76
2020/12/10 00:03:56;;;;;;;;;;;3.30;90.40;;;;;;4859910;29;19924;-77
2020/12/10 00:06:22;;;;;;;;;;;3.30;90.30;;;;;;4859300;29;20391;-77
2020/12/10 00:08:48;;;;;;;;;;;3.30;90.50;;;;;;4860538;29;19947;-77
2020/12/10 00:11:35;;;;;;;;;;;3.30;90.60;;;;;;4859361;29;19984;-77
2020/12/10 00:14:01;;;;;;;;;;;3.30;90.60;;;;;;4874900;29;19920;-77
2020/12/10 00:16:26;;;;;;;;;;;3.30;90.50;;;;;;4861610;29;19920;-77
2020/12/10 00:18:52;;;;;;;;;;;3.30;90.70;;;;;;4878851;29;19941;-77
2020/12/10 00:21:19;;;;;;;;;;;3.30;90.80;;;;;;4862891;29;19930;-77
2020/12/10 00:23:45;;;;;;;;;;;3.40;90.80;;;;;;4879068;29;19920;-77
2020/12/10 00:26:31;;;;;;;;;;;3.40;90.50;;;;;;4865279;29;19919;-77
2020/12/10 00:29:19;;;;;;;;;;;3.30;90.60;;;;;;4861361;29;19920;-77
2020/12/10 00:31:47;;;;;;;;;;;3.30;90.80;;;;;;4877674;29;19920;-77
2020/12/10 00:34:32;;;;;;;;;;;3.30;90.40;;;;;;4865002;29;19971;-77
2020/12/10 00:36:58;;;;;;;;;;;3.30;90.70;;;;;;4878895;29;19920;-77
2020/12/10 00:39:24;;;;;;;;;;;3.40;90.50;;;;;;4879044;29;19959;-77
2020/12/10 00:41:52;;;;;;;;;;;3.30;90.70;;;;;;4880219;29;19952;-77
2020/12/10 00:44:18;;;;;;;;;;;3.30;90.60;;;;;;4882559;29;20383;-77
2020/12/10 00:46:43;;;;;;;;;;;3.40;90.40;;;;;;4882678;29;19962;-77
2020/12/10 00:49:09;;;;;;;;;;;3.40;90.40;;;;;;4865942;29;19959;-77
2020/12/10 00:51:55;;;;;;;;;;;3.40;90.30;;;;;;4869086;29;20328;-77
2020/12/10 00:54:21;;;;;;;;;;;3.40;90.60;;;;;;4882311;29;19924;-77
2020/12/10 00:56:46;;;;;;;;;;;3.40;90.50;;;;;;4882317;29;19927;-77
2020/12/10 00:59:32;;;;;;;;;;;3.40;90.60;;;;;;4855515;29;19941;-76
2020/12/10 01:01:57;;;;;;;;;;;3.40;90.60;;;;;;4882066;29;19924;-76
2020/12/10 01:04:23;;;;;;;;;;;3.30;90.70;;;;;;4879736;29;19966;-76
2020/12/10 01:06:50;;;;;;;;;;;3.30;90.80;;;;;;4882097;29;20022;-76
2020/12/10 01:09:15;;;;;;;;;;;3.30;90.60;;;;;;4882114;29;19939;-76
2020/12/10 01:11:41;;;;;;;;;;;3.20;90.60;;;;;;4865622;29;20283;-76
2020/12/10 01:14:07;;;;;;;;;;;3.20;91.00;;;;;;4881851;29;20363;-76
2020/12/10 01:16:32;;;;;;;;;;;3.20;91.00;;;;;;4865352;29;19927;-75
2020/12/10 01:18:58;;;;;;;;;;;3.30;90.80;;;;;;4881685;29;20002;-75
2020/12/10 01:21:43;;;;;;;;;;;3.20;90.80;;;;;;4881771;29;19983;-75
2020/12/10 01:24:28;;;;;;;;;;;3.20;91.10;;;;;;4868140;29;19926;-74
2020/12/10 01:26:54;;;;;;;;;;;3.30;91.00;;;;;;4881949;29;20367;-75
2020/12/10 01:29:40;;;;;;;;;;;3.80;91.20;;;;;;4867649;29;19974;-75
2020/12/10 01:32:05;;;;;;;;;;;3.30;90.80;;;;;;4865031;29;19926;-77
2020/12/10 01:34:31;;;;;;;;;;;3.30;90.70;;;;;;4881452;29;19923;-76
2020/12/10 01:37:17;;;;;;;;;;;3.30;90.80;;;;;;4867885;29;19919;-76
2020/12/10 01:40:04;;;;;;;;;;;3.30;90.60;;;;;;4867584;29;20334;-76
2020/12/10 01:42:29;;;;;;;;;;;3.30;90.70;;;;;;4864845;29;19923;-76
2020/12/10 01:45:15;;;;;;;;;;;3.30;90.70;;;;;;4867827;29;19923;-75
2020/12/10 01:48:01;;;;;;;;;;;3.30;90.80;;;;;;4854626;29;20025;-74
2020/12/10 01:50:26;;;;;;;;;;;3.30;90.90;;;;;;4881466;29;20002;-75
2020/12/10 01:52:52;;;;;;;;;;;3.20;90.70;;;;;;4864093;29;20351;-75
2020/12/10 01:55:18;;;;;;;;;;;3.30;90.80;;;;;;4864675;29;19920;-75
2020/12/10 01:57:43;;;;;;;;;;;3.20;90.70;;;;;;4881146;29;20452;-75
2020/12/10 02:00:29;;;;;;;;;;;3.20;90.80;;;;;;4867567;29;19920;-75
2020/12/10 02:02:55;;;;;;;;;;;3.20;90.90;;;;;;4879585;29;19938;-75
2020/12/10 02:05:21;;;;;;;;;;;3.20;91.00;;;;;;4881006;29;19926;-75
2020/12/10 02:07:47;;;;;;;;;;;3.20;90.80;;;;;;4881226;29;19919;-75
2020/12/10 02:10:12;;;;;;;;;;;3.20;90.90;;;;;;4880952;29;20459;-75
2020/12/10 02:12:39;;;;;;;;;;;3.20;91.20;;;;;;4880435;29;19962;-75
2020/12/10 02:15:24;;;;;;;;;;;3.30;91.00;;;;;;4867119;29;19923;-76
2020/12/10 02:17:54;;;;;;;;;;;3.30;91.00;;;;;;4880523;29;19955;-76
2020/12/10 02:20:39;;;;;;;;;;;3.30;91.10;;;;;;4866822;29;20359;-76
2020/12/10 02:23:25;;;;;;;;;;;3.30;90.90;;;;;;4866734;29;20402;-76
2020/12/10 02:26:11;;;;;;;;;;;3.30;91.00;;;;;;4866494;29;19954;-76
2020/12/10 02:28:37;;;;;;;;;;;3.30;90.90;;;;;;4879597;29;19951;-76
2020/12/10 02:31:23;;;;;;;;;;;3.30;90.80;;;;;;4866484;29;19927;-76
2020/12/10 02:33:48;;;;;;;;;;;3.30;90.90;;;;;;4880806;29;19919;-76
2020/12/10 02:36:14;;;;;;;;;;;3.30;90.90;;;;;;4880758;29;19920;-76
2020/12/10 02:39:00;;;;;;;;;;;3.20;90.80;;;;;;4854012;29;19928;-75
2020/12/10 02:41:25;;;;;;;;;;;3.20;90.80;;;;;;4880632;29;19919;-75
2020/12/10 02:43:51;;;;;;;;;;;3.20;91.00;;;;;;4880327;29;19924;-75
2020/12/10 02:46:17;;;;;;;;;;;3.20;91.00;;;;;;4880189;29;19923;-75
2020/12/10 02:49:04;;;;;;;;;;;3.20;91.10;;;;;;4866528;29;19928;-75
2020/12/10 02:51:50;;;;;;;;;;;3.20;91.10;;;;;;4854162;29;19976;-76
2020/12/10 02:54:16;;;;;;;;;;;3.10;91.10;;;;;;4880495;29;20340;-76
2020/12/10 02:56:42;;;;;;;;;;;3.10;91.30;;;;;;4880137;29;19954;-76
2020/12/10 02:59:08;;;;;;;;;;;3.10;91.40;;;;;;4880182;29;19926;-76
2020/12/10 03:01:35;;;;;;;;;;;3.10;91.00;;;;;;4879904;29;20283;-76
2020/12/10 03:04:21;;;;;;;;;;;3.10;91.30;;;;;;4852818;29;19970;-76
2020/12/10 03:06:46;;;;;;;;;;;3.10;91.30;;;;;;4863681;29;19955;-75
2020/12/10 03:09:12;;;;;;;;;;;3.10;91.30;;;;;;4879936;29;19926;-76
2020/12/10 03:11:58;;;;;;;;;;;3.10;91.20;;;;;;4866217;29;19926;-76
2020/12/10 03:14:23;;;;;;;;;;;3.10;91.20;;;;;;4879702;29;19924;-75
2020/12/10 03:16:49;;;;;;;;;;;3.20;91.50;;;;;;4879929;29;19995;-75
2020/12/10 03:19:15;;;;;;;;;;;3.10;91.40;;;;;;4863409;29;19959;-75
2020/12/10 03:21:40;;;;;;;;;;;3.10;91.40;;;;;;4879760;29;19927;-75
2020/12/10 03:24:06;;;;;;;;;;;3.10;91.50;;;;;;4879917;29;20291;-75
2020/12/10 03:26:32;;;;;;;;;;;3.10;91.50;;;;;;4863402;29;19926;-75
2020/12/10 03:28:58;;;;;;;;;;;3.10;91.10;;;;;;4863153;29;20003;-75
2020/12/10 03:31:24;;;;;;;;;;;3.10;91.30;;;;;;4879327;29;20390;-75
2020/12/10 03:33:49;;;;;;;;;;;3.10;91.40;;;;;;4879605;29;19923;-75
2020/12/10 03:36:15;;;;;;;;;;;3.10;91.30;;;;;;4878355;29;19919;-75
2020/12/10 03:38:40;;;;;;;;;;;3.10;91.30;;;;;;4879585;29;20007;-75
2020/12/10 03:41:06;;;;;;;;;;;3.10;91.30;;;;;;4879246;29;19919;-74
2020/12/10 03:43:32;;;;;;;;;;;3.10;91.30;;;;;;4879674;29;20022;-75
2020/12/10 03:45:58;;;;;;;;;;;3.20;91.50;;;;;;4879610;29;19919;-75
2020/12/10 03:48:23;;;;;;;;;;;3.10;91.60;;;;;;4879299;29;19968;-75
2020/12/10 03:50:49;;;;;;;;;;;3.10;91.70;;;;;;4879602;29;20003;-75
2020/12/10 03:53:34;;;;;;;;;;;3.20;91.30;;;;;;4865869;29;19926;-75
2020/12/10 03:56:00;;;;;;;;;;;3.10;91.30;;;;;;4879316;29;19920;-75
2020/12/10 03:58:26;;;;;;;;;;;3.10;91.10;;;;;;4879005;29;20295;-75
2020/12/10 04:00:51;;;;;;;;;;;3.10;91.40;;;;;;4877925;29;19920;-75
2020/12/10 04:03:17;;;;;;;;;;;3.00;91.40;;;;;;4877951;29;19923;-75
2020/12/10 04:06:03;;;;;;;;;;;3.10;91.30;;;;;;4865787;29;20309;-75
2020/12/10 04:08:49;;;;;;;;;;;3.00;91.30;;;;;;4852683;29;19936;-75
2020/12/10 04:11:14;;;;;;;;;;;3.00;91.30;;;;;;4879113;29;19920;-75
2020/12/10 04:14:00;;;;;;;;;;;3.00;91.40;;;;;;4865156;29;19920;-75
2020/12/10 04:16:26;;;;;;;;;;;3.00;91.50;;;;;;4879160;29;19927;-75
2020/12/10 04:18:51;;;;;;;;;;;3.00;91.40;;;;;;4878702;29;19920;-75
2020/12/10 04:21:37;;;;;;;;;;;2.90;91.50;;;;;;4865254;29;19924;-76
2020/12/10 04:24:04;;;;;;;;;;;3.10;91.40;;;;;;4878957;29;19920;-76
2020/12/10 04:26:30;;;;;;;;;;;2.90;91.40;;;;;;4879180;29;20410;-76
2020/12/10 04:28:56;;;;;;;;;;;2.90;91.50;;;;;;4862339;29;19924;-76
2020/12/10 04:31:41;;;;;;;;;;;2.90;91.30;;;;;;4865224;29;19919;-74
2020/12/10 04:34:27;;;;;;;;;;;2.90;91.30;;;;;;4865072;29;20007;-75
2020/12/10 04:36:53;;;;;;;;;;;2.80;91.20;;;;;;4878935;29;19958;-75
2020/12/10 04:39:18;;;;;;;;;;;2.90;91.40;;;;;;4878414;29;19920;-75
2020/12/10 04:42:08;;;;;;;;;;;2.90;91.50;;;;;;4852399;29;19919;-74
2020/12/10 04:44:34;;;;;;;;;;;2.90;91.30;;;;;;4878924;29;19924;-74
2020/12/10 04:47:00;;;;;;;;;;;3.20;91.50;;;;;;4877893;29;19931;-74
2020/12/10 04:49:26;;;;;;;;;;;2.90;91.50;;;;;;4878686;29;19994;-75
2020/12/10 04:51:53;;;;;;;;;;;2.90;91.50;;;;;;4878519;29;20023;-75
2020/12/10 04:54:18;;;;;;;;;;;2.90;91.50;;;;;;4862305;29;19919;-75
2020/12/10 04:57:06;;;;;;;;;;;2.90;91.50;;;;;;4865270;29;19923;-75
2020/12/10 04:59:31;;;;;;;;;;;2.90;91.60;;;;;;4862290;29;20300;-76
2020/12/10 05:01:57;;;;;;;;;;;2.90;91.50;;;;;;4878526;29;19959;-76
2020/12/10 05:04:46;;;;;;;;;;;2.90;91.60;;;;;;4852518;29;20022;-76
2020/12/10 05:07:12;;;;;;;;;;;2.90;91.60;;;;;;4873949;29;19942;-75
2020/12/10 05:09:37;;;;;;;;;;;2.80;91.50;;;;;;4877644;29;19919;-75
2020/12/10 05:12:16;;;;;;;;;;;2.90;91.50;;;;;;4878592;29;19926;-75
2020/12/10 05:14:46;;;;;;;;;;;2.80;91.50;;;;;;4878701;29;19958;-75
2020/12/10 05:17:31;;;;;;;;;;;2.80;91.50;;;;;;4864343;29;19987;-76
2020/12/10 05:19:57;;;;;;;;;;;2.80;91.60;;;;;;4862386;29;19924;-76
2020/12/10 05:22:23;;;;;;;;;;;2.90;91.50;;;;;;4878441;29;20264;-76
2020/12/10 05:25:00;;;;;;;;;;;2.90;91.40;;;;;;4877626;29;19923;-76
2020/12/10 05:27:58;;;;;;;;;;;2.90;91.50;;;;;;4865713;29;19931;-76
2020/12/10 05:30:24;;;;;;;;;;;2.80;91.40;;;;;;4881845;29;19923;-75
2020/12/10 05:33:10;;;;;;;;;;;2.80;91.50;;;;;;4855056;29;19927;-76
2020/12/10 05:35:36;;;;;;;;;;;2.90;91.50;;;;;;4880576;29;20360;-75
2020/12/10 05:38:06;;;;;;;;;;;2.90;91.60;;;;;;4865123;29;19924;-75
2020/12/10 05:40:32;;;;;;;;;;;2.90;91.60;;;;;;4880745;29;19919;-76
2020/12/10 05:42:58;;;;;;;;;;;2.90;91.40;;;;;;4881720;29;19927;-76
2020/12/10 05:45:44;;;;;;;;;;;2.90;91.30;;;;;;4868020;29;19971;-76
2020/12/10 05:48:30;;;;;;;;;;;2.80;91.40;;;;;;4855096;29;19924;-76
2020/12/10 05:50:56;;;;;;;;;;;2.80;91.70;;;;;;4865106;29;19926;-76
2020/12/10 05:53:42;;;;;;;;;;;2.80;91.70;;;;;;4867655;29;19919;-75
2020/12/10 05:56:12;;;;;;;;;;;2.80;91.60;;;;;;4880300;29;19927;-76
2020/12/10 05:59:00;;;;;;;;;;;2.80;91.80;;;;;;4867428;29;20344;-75
2020/12/10 06:01:27;;;;;;;;;;;2.80;91.90;;;;;;4881230;29;19930;-75
2020/12/10 06:03:54;;;;;;;;;;;2.80;92.10;;;;;;4881140;29;19920;-75
2020/12/10 06:06:39;;;;;;;;;;;2.80;91.70;;;;;;4854615;29;20377;-75
2020/12/10 06:09:25;;;;;;;;;;;2.80;91.60;;;;;;4846265;29;19948;-76
2020/12/10 06:12:13;;;;;;;;;;;2.80;91.80;;;;;;4854431;29;20287;-76
2020/12/10 06:14:55;;;;;;;;;;;2.80;91.60;;;;;;4879926;29;19919;-74
2020/12/10 06:17:21;;;;;;;;;;;2.90;91.60;;;;;;4880694;29;19919;-75
2020/12/10 06:19:47;;;;;;;;;;;2.90;91.60;;;;;;4864588;29;19927;-75
2020/12/10 06:22:26;;;;;;;;;;;2.90;91.40;;;;;;4881023;29;19924;-75
2020/12/10 06:25:27;;;;;;;;;;;2.90;91.50;;;;;;4867277;29;19920;-75
2020/12/10 06:28:14;;;;;;;;;;;2.90;91.90;;;;;;4880451;29;19946;-75
2020/12/10 06:30:39;;;;;;;;;;;2.90;91.60;;;;;;4880791;29;19939;-75
2020/12/10 06:33:05;;;;;;;;;;;2.80;91.50;;;;;;4880652;29;19920;-75
2020/12/10 06:35:51;;;;;;;;;;;2.80;91.70;;;;;;4840570;29;19919;-76
2020/12/10 06:38:43;;;;;;;;;;;2.80;92.00;;;;;;4866592;29;20014;-75
2020/12/10 06:41:08;;;;;;;;;;;2.80;91.90;;;;;;4880153;29;19919;-75
2020/12/10 06:43:37;;;;;;;;;;;2.80;91.90;;;;;;4880719;29;20015;-76
2020/12/10 06:46:03;;;;;;;;;;;2.80;91.90;;;;;;4880209;29;19927;-76
2020/12/10 06:48:39;;;;;;;;;;;2.80;91.90;;;;;;4880434;29;19924;-77
2020/12/10 06:51:13;;;;;;;;;;;2.90;91.90;;;;;;4874896;29;19919;-76
2020/12/10 06:54:00;;;;;;;;;;;2.90;92.00;;;;;;4870925;29;19918;-76
2020/12/10 06:56:58;;;;;;;;;;;2.90;92.00;;;;;;4865337;29;19972;-76
2020/12/10 06:59:44;;;;;;;;;;;2.90;91.60;;;;;;4866296;29;20395;-76
2020/12/10 07:02:15;;;;;;;;;;;2.90;91.80;;;;;;4863942;29;19924;-76
2020/12/10 07:05:03;;;;;;;;;;;2.90;91.50;;;;;;4866495;29;19923;-86
2020/12/10 07:07:29;;;;;;;;;;;3.00;91.60;;;;;;4880570;29;19919;-79
2020/12/10 07:10:14;;;;;;;;;;;3.00;91.80;;;;;;4866034;29;19948;-78
2020/12/10 07:12:43;;;;;;;;;;;2.90;91.80;;;;;;4863491;29;20006;-77
2020/12/10 07:15:10;;;;;;;;;;;2.90;91.70;;;;;;4880122;29;19920;-81
2020/12/10 07:17:36;;;;;;;;;;;2.90;91.60;;;;;;4878485;29;19919;-77
2020/12/10 07:20:02;;;;;;;;;;;2.90;91.70;;;;;;4880072;29;19946;-76
2020/12/10 07:22:28;;;;;;;;;;;2.90;91.90;;;;;;4879801;29;19967;-79
2020/12/10 07:24:53;;;;;;;;;;;2.90;91.50;;;;;;4863240;29;19924;-77
2020/12/10 07:27:43;;;;;;;;;;;2.90;91.50;;;;;;4865876;29;20502;-75
2020/12/10 07:30:12;;;;;;;;;;;2.90;91.50;;;;;;4879847;29;20469;-80
2020/12/10 07:32:59;;;;;;;;;;;2.90;91.50;;;;;;4864996;29;19987;-80
2020/12/10 07:35:44;;;;;;;;;;;2.80;91.40;;;;;;4866201;29;19920;-78
2020/12/10 07:38:14;;;;;;;;;;;2.80;91.60;;;;;;4880131;29;20402;-80
2020/12/10 07:40:40;;;;;;;;;;;2.80;91.50;;;;;;4879500;29;20295;-76
2020/12/10 07:43:10;;;;;;;;;;;2.80;91.80;;;;;;4878788;29;20006;-88
2020/12/10 07:45:38;;;;;;;;;;;2.80;91.90;;;;;;4847685;29;19920;-74
2020/12/10 07:48:06;;;;;;;;;;;2.80;91.70;;;;;;4879141;29;19926;-74
2020/12/10 07:50:36;;;;;;;;;;;2.90;91.80;;;;;;4862703;29;19939;-83
2020/12/10 07:53:07;;;;;;;;;;;2.90;91.80;;;;;;4870706;29;19920;-75
2020/12/10 07:55:34;;;;;;;;;;;2.90;91.70;;;;;;4879025;29;20384;-76
2020/12/10 07:58:11;;;;;;;;;;;2.90;91.60;;;;;;4879032;29;19976;-75
2020/12/10 08:00:39;;;;;;;;;;;2.90;91.60;;;;;;4862512;29;19990;-75
2020/12/10 08:03:26;;;;;;;;;;;3.00;91.70;;;;;;4865158;29;19951;-75
2020/12/10 08:06:07;;;;;;;;;;;3.00;91.60;;;;;;4862643;29;19972;-75
2020/12/10 08:08:35;;;;;;;;;;;2.90;91.70;;;;;;4874666;29;19957;-76
2020/12/10 08:11:08;;;;;;;;;;;2.90;91.50;;;;;;4879275;29;19926;-75
2020/12/10 08:14:00;;;;;;;;;;;2.90;91.60;;;;;;4864478;29;19920;-75
2020/12/10 08:16:42;;;;;;;;;;;3.00;91.70;;;;;;4878951;29;19927;-75
2020/12/10 08:19:11;;;;;;;;;;;3.00;91.50;;;;;;4878585;29;19974;-75
2020/12/10 08:21:36;;;;;;;;;;;3.00;91.30;;;;;;4877830;29;20340;-76
2020/12/10 08:24:02;;;;;;;;;;;3.00;91.20;;;;;;4878879;29;19968;-75
2020/12/10 08:26:29;;;;;;;;;;;2.90;91.50;;;;;;4878902;29;19924;-75
2020/12/10 08:28:56;;;;;;;;;;;3.00;91.60;;;;;;4879123;29;19994;-75
2020/12/10 08:31:24;;;;;;;;;;;3.00;91.50;;;;;;4879146;29;19946;-76
2020/12/10 08:33:51;;;;;;;;;;;3.00;91.60;;;;;;4851330;29;19944;-77
2020/12/10 08:36:36;;;;;;;;;;;3.00;91.40;;;;;;4852335;29;19919;-77
2020/12/10 08:39:04;;;;;;;;;;;3.00;91.60;;;;;;4878783;29;20275;-77
2020/12/10 08:41:34;;;;;;;;;;;3.10;91.60;;;;;;4878597;29;19930;-77
2020/12/10 08:44:04;;;;;;;;;;;3.10;91.60;;;;;;4877321;29;19929;-77
2020/12/10 08:46:31;;;;;;;;;;;3.00;91.70;;;;;;4878901;29;19924;-77
2020/12/10 08:49:17;;;;;;;;;;;3.10;91.50;;;;;;4876119;29;19957;-79
2020/12/10 08:51:45;;;;;;;;;;;3.00;91.40;;;;;;4878061;29;19920;-83
2020/12/10 08:54:11;;;;;;;;;;;3.10;91.40;;;;;;4859036;29;19998;-82
2020/12/10 08:56:38;;;;;;;;;;;3.00;91.50;;;;;;4876448;29;20019;-80
2020/12/10 08:59:23;;;;;;;;;;;3.00;91.50;;;;;;4858127;29;20292;-79
2020/12/10 09:02:09;;;;;;;;;;;3.00;91.60;;;;;;4860539;29;19977;-75
2020/12/10 09:04:35;;;;;;;;;;;3.00;91.80;;;;;;4880786;29;20384;-75
2020/12/10 09:07:00;;;;;;;;;;;3.00;91.90;;;;;;4865342;29;19920;-76
2020/12/10 09:09:26;;;;;;;;;;;3.10;91.40;;;;;;4880339;29;19919;-75
2020/12/10 09:12:16;;;;;;;;;;;3.10;91.20;;;;;;4855119;29;19970;-82
2020/12/10 09:14:42;;;;;;;;;;;3.20;91.50;;;;;;4882319;29;19927;-89
2020/12/10 09:17:28;;;;;;;;;;;3.10;91.80;;;;;;4869112;29;19963;-89
2020/12/10 09:20:17;;;;;;;;;;;3.10;91.50;;;;;;4868841;29;19924;-88
2020/12/10 09:23:03;;;;;;;;;;;3.30;91.30;;;;;;4869014;29;19934;-84
2020/12/10 09:25:29;;;;;;;;;;;3.30;91.20;;;;;;4881612;29;20018;-76
2020/12/10 09:27:54;;;;;;;;;;;3.20;91.50;;;;;;4879344;29;19919;-77
2020/12/10 09:30:21;;;;;;;;;;;3.20;91.40;;;;;;4850156;29;19920;-76
2020/12/10 09:32:50;;;;;;;;;;;3.20;91.80;;;;;;4881776;29;19923;-76
2020/12/10 09:35:16;;;;;;;;;;;3.20;91.80;;;;;;4865332;29;20329;-76
2020/12/10 09:37:42;;;;;;;;;;;3.20;91.50;;;;;;4881763;29;20435;-76
2020/12/10 09:40:09;;;;;;;;;;;3.20;91.60;;;;;;4881223;29;20027;-76
2020/12/10 09:42:54;;;;;;;;;;;3.20;91.90;;;;;;4854981;29;19931;-75
2020/12/10 09:45:42;;;;;;;;;;;3.20;91.90;;;;;;4868150;29;19926;-76
2020/12/10 09:48:28;;;;;;;;;;;3.20;91.70;;;;;;4855425;29;20014;-76
2020/12/10 09:51:13;;;;;;;;;;;3.20;91.50;;;;;;4867495;29;20375;-76
2020/12/10 09:53:44;;;;;;;;;;;3.20;91.30;;;;;;4880434;29;19956;-76
2020/12/10 09:58:46;;;;;;;;;;;3.40;91.10;;;;;;4881602;29;20010;-76
2020/12/10 10:01:32;;;;;;;;;;;3.40;90.80;;;;;;4867582;29;19930;-76
2020/12/10 10:03:57;;;;;;;;;;;3.40;90.60;;;;;;4880343;29;20346;-75
2020/12/10 10:06:23;;;;;;;;;;;3.40;90.80;;;;;;4864866;29;19927;-75
2020/12/10 10:08:52;;;;;;;;;;;3.40;90.80;;;;;;4881309;29;20006;-75
2020/12/10 10:11:37;;;;;;;;;;;3.30;91.00;;;;;;4854750;29;19927;-75
2020/12/10 10:14:23;;;;;;;;;;;3.30;91.20;;;;;;4867471;29;20006;-75
2020/12/10 10:17:09;;;;;;;;;;;3.30;91.70;;;;;;4867183;29;19970;-79
2020/12/10 10:19:55;;;;;;;;;;;3.30;91.50;;;;;;4866662;29;20006;-79
2020/12/10 10:22:41;;;;;;;;;;;3.20;91.40;;;;;;4865966;29;19974;-80
2020/12/10 10:25:07;;;;;;;;;;;3.20;91.50;;;;;;4880110;29;19923;-79
2020/12/10 10:27:53;;;;;;;;;;;3.20;91.70;;;;;;4853338;29;20288;-79
2020/12/10 10:30:23;;;;;;;;;;;3.10;91.60;;;;;;4878593;29;20156;-79
2020/12/10 10:32:49;;;;;;;;;;;3.10;91.50;;;;;;4879867;29;19923;-79
2020/12/10 10:35:15;;;;;;;;;;;3.10;91.50;;;;;;4878820;29;19942;-79
2020/12/10 10:38:00;;;;;;;;;;;3.10;91.80;;;;;;4866065;29;20017;-79
2020/12/10 10:40:47;;;;;;;;;;;3.10;91.50;;;;;;4866203;29;20313;-79
2020/12/10 10:43:12;;;;;;;;;;;3.60;91.60;;;;;;4863273;29;19923;-79
2020/12/10 10:45:58;;;;;;;;;;;3.20;91.30;;;;;;4866184;29;20045;-79
2020/12/10 10:48:24;;;;;;;;;;;3.20;91.40;;;;;;4863018;29;20387;-79
2020/12/10 10:50:50;;;;;;;;;;;3.10;91.50;;;;;;4863238;29;20360;-75
2020/12/10 10:53:19;;;;;;;;;;;3.10;91.70;;;;;;4863399;29;20015;-75
2020/12/10 10:55:47;;;;;;;;;;;3.20;91.70;;;;;;4863152;29;20006;-75
2020/12/10 10:58:14;;;;;;;;;;;3.30;92.00;;;;;;4878258;29;19920;-75
2020/12/10 11:00:39;;;;;;;;;;;3.20;91.70;;;;;;4879687;29;19924;-75
2020/12/10 11:03:06;;;;;;;;;;;3.20;91.80;;;;;;4862958;29;19920;-75
2020/12/10 11:05:32;;;;;;;;;;;3.20;91.60;;;;;;4879782;29;19924;-75
2020/12/10 11:07:58;;;;;;;;;;;3.20;91.50;;;;;;4878396;29;19959;-76
2020/12/10 11:10:24;;;;;;;;;;;3.30;91.30;;;;;;4847618;29;19967;-80
2020/12/10 11:13:09;;;;;;;;;;;3.20;91.70;;;;;;4865982;29;20002;-75
2020/12/10 11:16:00;;;;;;;;;;;3.30;91.80;;;;;;4865521;29;20018;-80
2020/12/10 11:18:50;;;;;;;;;;;3.30;91.50;;;;;;4842109;29;705573;-76
2020/12/10 11:21:17;;;;;;;;;;;3.30;91.70;;;;;;4863145;29;20320;-76
2020/12/10 11:23:44;;;;;;;;;;;3.30;91.30;;;;;;4879956;29;19927;-76
2020/12/10 11:26:18;;;;;;;;;;;3.30;91.60;;;;;;4877465;29;20292;-76
2020/12/10 11:31:58;;;;;;;;;;;3.50;91.70;;;;;;4879979;29;20308;-80
2020/12/10 11:34:24;;;;;;;;;;;3.20;91.70;;;;;;4864343;29;19930;-76
2020/12/10 11:36:52;;;;;;;;;;;3.70;91.70;;;;;;4848370;29;20408;-81
2020/12/10 11:39:18;;;;;;;;;;;3.20;92.00;;;;;;4879596;29;20007;-80
2020/12/10 11:41:46;;;;;;;;;;;3.20;91.60;;;;;;4880051;29;20243;-76
2020/12/10 11:44:50;;;;;;;;;;;3.30;91.60;;;;;;4865985;29;19923;-76
2020/12/10 11:47:39;;;;;;;;;;;3.30;91.20;;;;;;4866108;29;20003;-80
2020/12/10 11:50:25;;;;;;;;;;;3.60;91.30;;;;;;4865701;29;19923;-80
2020/12/10 11:53:11;;;;;;;;;;;3.30;91.40;;;;;;4853180;29;19924;-76
2020/12/10 11:55:57;;;;;;;;;;;3.30;91.30;;;;;;4865766;29;19967;-76
2020/12/10 11:58:22;;;;;;;;;;;3.40;91.40;;;;;;4879391;29;19920;-76
2020/12/10 12:00:48;;;;;;;;;;;3.30;91.50;;;;;;4879482;29;19919;-76
2020/12/10 12:03:34;;;;;;;;;;;3.30;91.60;;;;;;4865830;29;19979;-76
2020/12/10 12:06:00;;;;;;;;;;;3.30;91.70;;;;;;4879683;29;20291;-80
2020/12/10 12:08:45;;;;;;;;;;;3.30;91.20;;;;;;4865659;29;19919;-80
2020/12/10 12:11:16;;;;;;;;;;;3.30;91.40;;;;;;4862945;29;19926;-81
2020/12/10 12:13:41;;;;;;;;;;;3.30;91.50;;;;;;4879260;29;20014;-81
2020/12/10 12:16:10;;;;;;;;;;;3.20;91.20;;;;;;4879359;29;20537;-81
2020/12/10 12:18:56;;;;;;;;;;;3.30;91.60;;;;;;4862554;29;20356;-81
2020/12/10 12:21:26;;;;;;;;;;;3.30;91.40;;;;;;4878758;29;19930;-80
2020/12/10 12:24:11;;;;;;;;;;;3.30;91.20;;;;;;4879255;29;19924;-80
2020/12/10 12:26:38;;;;;;;;;;;3.30;90.90;;;;;;4879223;29;19920;-81
2020/12/10 12:29:04;;;;;;;;;;;3.40;91.30;;;;;;4862319;29;19975;-81
2020/12/10 12:31:30;;;;;;;;;;;3.40;91.00;;;;;;4862482;29;19924;-81
2020/12/10 12:34:16;;;;;;;;;;;3.50;91.00;;;;;;4878144;29;20408;-81
2020/12/10 12:37:22;;;;;;;;;;;3.60;91.30;;;;;;4867063;29;19923;-81
2020/12/10 12:40:09;;;;;;;;;;;3.30;91.50;;;;;;4882854;29;19920;-81
2020/12/10 12:42:35;;;;;;;;;;;3.40;91.60;;;;;;4866347;29;19919;-81
2020/12/10 12:45:20;;;;;;;;;;;3.40;91.50;;;;;;4869245;29;19924;-81
2020/12/10 12:47:48;;;;;;;;;;;3.40;91.40;;;;;;4882839;29;20272;-81
2020/12/10 12:50:13;;;;;;;;;;;3.40;91.00;;;;;;4866071;29;19998;-81
2020/12/10 12:53:20;;;;;;;;;;;3.30;90.70;;;;;;4868416;29;20388;-81
2020/12/10 12:56:25;;;;;;;;;;;3.40;90.70;;;;;;4869263;29;20308;-81
2020/12/10 12:58:56;;;;;;;;;;;3.40;91.10;;;;;;4882316;29;19920;-81
2020/12/10 13:01:37;;;;;;;;;;;3.40;91.00;;;;;;4881383;29;19931;-81
2020/12/10 13:04:45;;;;;;;;;;;3.30;91.10;;;;;;4868944;29;19931;-81
2020/12/10 13:07:11;;;;;;;;;;;3.30;91.10;;;;;;4882002;29;19920;-81
2020/12/10 13:09:38;;;;;;;;;;;3.40;91.40;;;;;;4882586;29;20014;-81
2020/12/10 13:12:42;;;;;;;;;;;3.40;91.20;;;;;;4868759;29;19920;-81
2020/12/10 13:15:28;;;;;;;;;;;3.30;91.30;;;;;;4868647;29;19920;-81
2020/12/10 13:17:54;;;;;;;;;;;3.40;91.20;;;;;;4882076;29;20348;-81
2020/12/10 13:20:19;;;;;;;;;;;3.40;91.40;;;;;;4881245;29;19924;-80
2020/12/10 13:22:45;;;;;;;;;;;3.40;91.10;;;;;;4881962;29;19920;-81
2020/12/10 13:25:11;;;;;;;;;;;3.40;91.00;;;;;;4865697;29;20435;-81
2020/12/10 13:27:45;;;;;;;;;;;3.40;91.50;;;;;;4850392;29;19920;-81
2020/12/10 13:30:11;;;;;;;;;;;3.40;91.00;;;;;;4865424;29;19927;-81
2020/12/10 13:32:40;;;;;;;;;;;3.40;91.40;;;;;;4881924;29;19920;-81
2020/12/10 13:35:07;;;;;;;;;;;3.40;91.30;;;;;;4865209;29;19998;-81
2020/12/10 13:37:54;;;;;;;;;;;3.30;91.10;;;;;;4868293;29;19930;-81
2020/12/10 13:40:39;;;;;;;;;;;3.30;91.30;;;;;;4868480;29;19919;-81
2020/12/10 13:43:12;;;;;;;;;;;3.30;91.40;;;;;;4880630;29;19934;-81
2020/12/10 13:45:38;;;;;;;;;;;3.30;91.50;;;;;;4865152;29;20006;-81
2020/12/10 13:48:23;;;;;;;;;;;3.30;91.40;;;;;;4867553;29;20022;-81
2020/12/10 13:50:49;;;;;;;;;;;3.30;91.40;;;;;;4865269;29;19962;-76
2020/12/10 13:53:15;;;;;;;;;;;3.20;91.00;;;;;;4881628;29;19919;-76
2020/12/10 13:56:05;;;;;;;;;;;3.20;91.10;;;;;;4855056;29;20002;-76
2020/12/10 13:58:30;;;;;;;;;;;3.50;91.30;;;;;;4880352;29;19923;-81
2020/12/10 14:00:56;;;;;;;;;;;3.30;91.40;;;;;;4864958;29;19972;-81
2020/12/10 14:03:42;;;;;;;;;;;3.30;91.30;;;;;;4867675;29;19920;-81
2020/12/10 14:06:24;;;;;;;;;;;3.30;91.10;;;;;;4880122;29;19944;-81
2020/12/10 14:08:50;;;;;;;;;;;3.20;91.00;;;;;;4881068;29;19946;-81
2020/12/10 14:11:24;;;;;;;;;;;3.20;90.80;;;;;;4880272;29;20375;-81
2020/12/10 14:13:50;;;;;;;;;;;3.20;91.10;;;;;;4881169;29;19920;-81
2020/12/10 14:16:16;;;;;;;;;;;3.20;90.90;;;;;;4881229;29;20002;-81
2020/12/10 14:19:09;;;;;;;;;;;3.20;90.50;;;;;;4861155;29;19930;-81
2020/12/10 14:21:55;;;;;;;;;;;3.20;90.90;;;;;;4848888;29;19928;-81
2020/12/10 14:24:24;;;;;;;;;;;3.20;91.20;;;;;;4876748;29;20376;-81
2020/12/10 14:26:58;;;;;;;;;;;3.20;90.90;;;;;;4876906;29;19928;-81
2020/12/10 14:29:47;;;;;;;;;;;3.10;90.60;;;;;;4862387;29;20391;-81
2020/12/10 14:32:13;;;;;;;;;;;3.10;90.80;;;;;;4861560;29;19958;-81
2020/12/10 14:34:39;;;;;;;;;;;3.10;90.90;;;;;;4862511;29;19967;-76
2020/12/10 14:37:10;;;;;;;;;;;3.50;90.90;;;;;;4860992;29;19927;-76
2020/12/10 14:39:38;;;;;;;;;;;3.10;90.80;;;;;;4861140;29;20010;-76
2020/12/10 14:42:04;;;;;;;;;;;3.10;90.50;;;;;;4846040;29;19927;-76
2020/12/10 14:44:33;;;;;;;;;;;3.10;90.50;;;;;;4876386;29;19928;-76
2020/12/10 14:46:58;;;;;;;;;;;3.10;90.40;;;;;;4876622;29;19927;-76
2020/12/10 14:49:24;;;;;;;;;;;3.10;90.60;;;;;;4876246;29;19920;-76
2020/12/10 14:51:49;;;;;;;;;;;3.10;90.50;;;;;;4876300;29;19970;-76
2020/12/10 14:54:38;;;;;;;;;;;3.10;90.60;;;;;;4848356;29;19959;-76
2020/12/10 14:57:05;;;;;;;;;;;3.10;90.50;;;;;;4859630;29;20444;-78
2020/12/10 14:59:30;;;;;;;;;;;3.20;90.30;;;;;;4861483;29;19920;-78
2020/12/10 15:01:58;;;;;;;;;;;3.10;90.30;;;;;;4861032;29;19920;-78
2020/12/10 15:04:43;;;;;;;;;;;3.10;90.60;;;;;;4860749;29;19928;-78
2020/12/10 15:07:09;;;;;;;;;;;3.10;90.50;;;;;;4861654;29;20283;-78
2020/12/10 15:09:35;;;;;;;;;;;3.20;90.60;;;;;;4876155;29;19981;-78
2020/12/10 15:12:04;;;;;;;;;;;3.20;90.40;;;;;;4875756;29;19920;-77
2020/12/10 15:14:32;;;;;;;;;;;3.20;90.70;;;;;;4860458;29;20312;-78